Time;durP1;ratioP1;P1;durP2;ratioP2;P2;SDS_P1;SDS_P2;PMS_P1;PMS_P2;Temp;Humidity;BMP_temperature;BMP_pressure;BME280_temperature;BME280_humidity;BME280_pressure;Samples;Min_cycle;Max_cycle;Signal;HPM_P1;HPM_P2
2023/05/23 00:00:24;;;;;;;6.15;5.32;;;18.60;96.70;;;;;;4947823;28;20051;-70
2023/05/23 00:02:52;;;;;;;6.30;5.70;;;18.50;96.70;;;;;;4945319;28;20050;-70
2023/05/23 00:05:30;;;;;;;7.05;5.72;;;18.50;96.70;;;;;;4964280;28;20715;-70
2023/05/23 00:07:59;;;;;;;8.10;5.72;;;18.40;96.70;;;;;;4964958;28;20047;-70
2023/05/23 00:10:29;;;;;;;7.35;5.72;;;18.30;96.70;;;;;;4963505;28;20051;-69
2023/05/23 00:12:58;;;;;;;6.05;5.45;;;18.40;96.70;;;;;;4966578;28;20034;-70
2023/05/23 00:15:27;;;;;;;9.10;5.65;;;18.40;96.70;;;;;;4948655;28;20042;-70
2023/05/23 00:17:56;;;;;;;7.63;5.35;;;18.30;96.70;;;;;;4964175;28;20043;-70
2023/05/23 00:20:25;;;;;;;7.45;5.63;;;18.30;96.70;;;;;;4965861;28;20669;-70
2023/05/23 00:22:57;;;;;;;8.30;5.68;;;18.20;96.70;;;;;;4965389;28;20409;-70
2023/05/23 00:25:32;;;;;;;6.55;5.85;;;18.10;96.70;;;;;;4931096;28;20065;-70
2023/05/23 00:28:03;;;;;;;6.70;5.10;;;18.00;96.70;;;;;;4946883;28;20054;-70
2023/05/23 00:30:33;;;;;;;7.00;5.25;;;18.10;96.70;;;;;;4949463;28;20416;-70
2023/05/23 00:33:02;;;;;;;6.50;5.22;;;18.20;96.70;;;;;;4964274;28;20043;-71
2023/05/23 00:35:31;;;;;;;6.35;5.15;;;18.20;96.70;;;;;;4959002;28;20058;-70
2023/05/23 00:38:01;;;;;;;7.45;5.32;;;18.20;96.70;;;;;;4963434;28;20496;-70
2023/05/23 00:40:29;;;;;;;7.07;4.95;;;18.20;96.70;;;;;;4963539;28;20564;-70
2023/05/23 00:42:58;;;;;;;6.10;5.30;;;18.00;96.70;;;;;;4944474;28;20790;-70
2023/05/23 00:45:28;;;;;;;8.18;5.38;;;18.00;96.70;;;;;;4964479;28;20162;-70
2023/05/23 00:47:58;;;;;;;6.07;5.10;;;18.00;96.70;;;;;;4966506;28;20061;-71
2023/05/23 00:50:28;;;;;;;8.07;5.05;;;18.00;96.70;;;;;;4946529;28;20133;-70
2023/05/23 00:53:00;;;;;;;6.55;5.38;;;18.00;96.70;;;;;;4947046;28;20089;-70
2023/05/23 00:55:30;;;;;;;7.25;4.90;;;18.10;96.70;;;;;;4938296;28;20042;-70
2023/05/23 00:57:59;;;;;;;5.30;4.80;;;18.10;96.70;;;;;;4960094;28;20046;-70
2023/05/23 01:00:29;;;;;;;5.65;5.15;;;18.20;96.70;;;;;;4948220;28;20497;-70
2023/05/23 01:02:59;;;;;;;6.30;5.05;;;18.10;96.70;;;;;;4963946;28;20046;-71
2023/05/23 01:05:28;;;;;;;7.28;5.00;;;18.00;96.70;;;;;;4965200;28;20038;-70
2023/05/23 01:07:58;;;;;;;7.97;5.28;;;18.00;96.70;;;;;;4929342;28;20692;-70
2023/05/23 01:10:28;;;;;;;6.63;5.20;;;18.10;96.70;;;;;;4930788;28;20058;-71
2023/05/23 01:13:05;;;;;;;6.25;5.25;;;18.00;96.70;;;;;;4966266;28;20061;-70
2023/05/23 01:15:44;;;;;;;5.85;4.65;;;17.90;96.70;;;;;;4961101;28;20168;-70
2023/05/23 01:18:16;;;;;;;6.88;5.22;;;17.90;96.70;;;;;;4964994;28;20046;-70
2023/05/23 01:20:51;;;;;;;9.02;5.38;;;17.90;96.70;;;;;;4947219;28;20050;-70
2023/05/23 01:23:44;;;;;;;5.68;5.07;;;17.80;96.70;;;;;;4965317;28;20097;-70
2023/05/23 01:26:25;;;;;;;5.82;5.13;;;17.70;96.70;;;;;;4964635;28;20133;-70
2023/05/23 01:29:04;;;;;;;7.53;4.53;;;17.80;96.70;;;;;;4946207;28;20043;-70
2023/05/23 01:31:36;;;;;;;6.88;5.00;;;17.90;96.70;;;;;;4964732;28;20056;-70
2023/05/23 01:34:06;;;;;;;7.57;5.22;;;17.80;96.70;;;;;;4937278;28;20599;-70
2023/05/23 01:36:39;;;;;;;5.95;5.20;;;17.80;96.70;;;;;;4947658;28;20216;-69
2023/05/23 01:39:07;;;;;;;7.55;5.25;;;17.90;96.70;;;;;;4946820;28;20602;-70
2023/05/23 01:41:36;;;;;;;5.85;4.75;;;17.80;96.70;;;;;;4965783;28;20070;-70
2023/05/23 01:44:07;;;;;;;8.65;4.63;;;17.70;96.70;;;;;;4946285;28;20161;-70
2023/05/23 01:46:41;;;;;;;7.38;4.68;;;17.60;96.70;;;;;;4945474;28;20051;-70
2023/05/23 01:49:13;;;;;;;8.20;4.90;;;17.60;96.70;;;;;;4962247;28;20049;-70
2023/05/23 01:51:42;;;;;;;6.20;4.15;;;17.70;96.70;;;;;;4945367;28;20460;-70
2023/05/23 01:54:13;;;;;;;6.88;4.53;;;17.70;96.70;;;;;;4963011;28;20121;-70
2023/05/23 01:56:42;;;;;;;6.50;5.38;;;17.70;96.70;;;;;;4963738;28;20116;-70
2023/05/23 01:59:13;;;;;;;8.95;5.07;;;17.70;96.70;;;;;;4949783;28;20042;-70
2023/05/23 02:01:42;;;;;;;5.38;4.82;;;17.60;96.70;;;;;;4927384;28;20584;-70
2023/05/23 02:04:13;;;;;;;7.43;4.50;;;17.60;96.70;;;;;;4962061;28;20042;-69
2023/05/23 02:06:42;;;;;;;7.80;4.60;;;17.60;96.70;;;;;;4945112;28;20078;-70
2023/05/23 02:09:13;;;;;;;4.97;4.43;;;17.60;96.70;;;;;;4947818;28;20120;-71
2023/05/23 02:11:42;;;;;;;6.75;4.75;;;17.50;96.70;;;;;;4964651;28;20126;-71
2023/05/23 02:14:12;;;;;;;5.50;4.53;;;17.50;96.70;;;;;;4946464;28;20043;-70
2023/05/23 02:16:42;;;;;;;6.00;4.10;;;17.50;96.70;;;;;;4962634;28;20048;-70
2023/05/23 02:19:11;;;;;;;6.47;4.68;;;17.60;96.70;;;;;;4936066;28;20061;-70
2023/05/23 02:21:39;;;;;;;7.25;4.10;;;17.50;96.70;;;;;;4963001;28;20043;-71
2023/05/23 02:24:08;;;;;;;7.80;4.38;;;17.50;96.70;;;;;;4962355;28;20167;-69
2023/05/23 02:26:37;;;;;;;5.25;4.10;;;17.60;96.70;;;;;;4944391;28;20493;-70
2023/05/23 02:29:05;;;;;;;5.25;4.13;;;17.60;96.70;;;;;;4964497;28;20078;-69
2023/05/23 02:31:36;;;;;;;5.07;4.30;;;17.60;96.70;;;;;;4943733;28;20065;-70
2023/05/23 02:34:04;;;;;;;5.80;3.92;;;17.60;96.70;;;;;;4963899;28;20049;-70
2023/05/23 02:36:35;;;;;;;5.53;4.20;;;17.50;96.70;;;;;;4941493;28;20046;-70
2023/05/23 02:39:04;;;;;;;4.55;4.13;;;17.50;96.70;;;;;;4946019;28;20042;-70
2023/05/23 02:41:33;;;;;;;5.07;3.88;;;17.40;96.70;;;;;;4928387;28;20035;-70
2023/05/23 02:44:02;;;;;;;5.22;4.15;;;17.40;96.70;;;;;;4946165;28;20516;-70
2023/05/23 02:46:31;;;;;;;5.07;4.57;;;17.40;96.70;;;;;;4948863;28;20055;-70
2023/05/23 02:49:02;;;;;;;7.80;4.80;;;17.50;96.70;;;;;;4960995;28;20035;-70
2023/05/23 02:51:31;;;;;;;9.00;5.07;;;17.40;96.70;;;;;;4959985;28;20519;-70
2023/05/23 02:54:00;;;;;;;4.90;4.38;;;17.40;96.70;;;;;;4962477;28;20057;-70
2023/05/23 02:56:31;;;;;;;5.20;4.30;;;17.30;96.70;;;;;;4951633;28;20047;-70
2023/05/23 02:59:00;;;;;;;6.50;3.97;;;17.30;96.70;;;;;;4946767;28;21538;-69
2023/05/23 03:01:28;;;;;;;6.30;4.28;;;17.40;96.70;;;;;;4945410;28;20050;-70
2023/05/23 03:03:57;;;;;;;4.65;4.00;;;17.40;96.70;;;;;;4962566;28;20038;-70
2023/05/23 03:06:27;;;;;;;5.97;4.30;;;17.40;96.70;;;;;;4947011;28;20508;-70
2023/05/23 03:08:56;;;;;;;4.97;4.03;;;17.30;96.70;;;;;;4948406;28;20046;-70
2023/05/23 03:11:24;;;;;;;4.40;3.97;;;17.20;96.70;;;;;;4947177;28;20074;-70
2023/05/23 03:13:53;;;;;;;6.18;4.00;;;17.30;96.70;;;;;;4965305;28;20042;-70
2023/05/23 03:16:24;;;;;;;5.07;4.15;;;17.20;96.70;;;;;;4950129;28;20039;-70
2023/05/23 03:18:54;;;;;;;4.93;4.15;;;17.30;96.70;;;;;;4960566;28;20039;-70
2023/05/23 03:21:22;;;;;;;7.03;4.20;;;17.30;96.70;;;;;;4950421;28;20113;-70
2023/05/23 03:23:52;;;;;;;7.15;4.38;;;17.30;96.70;;;;;;4964794;28;20051;-70
2023/05/23 03:26:21;;;;;;;6.65;4.03;;;17.20;96.70;;;;;;4967667;28;20046;-71
2023/05/23 03:28:50;;;;;;;6.43;4.25;;;17.20;96.70;;;;;;4967038;28;20039;-70
2023/05/23 03:31:19;;;;;;;5.97;4.15;;;17.20;96.70;;;;;;4953905;28;20125;-70
2023/05/23 03:33:48;;;;;;;6.97;4.30;;;17.10;96.70;;;;;;4948021;28;20044;-71
2023/05/23 03:36:17;;;;;;;5.53;4.28;;;17.10;96.70;;;;;;4942480;28;20050;-70
2023/05/23 03:38:45;;;;;;;5.38;4.75;;;17.10;96.70;;;;;;4947026;28;20079;-70
2023/05/23 03:41:16;;;;;;;6.18;4.88;;;17.10;96.70;;;;;;4945172;28;20042;-69
2023/05/23 03:43:46;;;;;;;5.80;5.20;;;17.00;96.70;;;;;;4957317;28;20130;-70
2023/05/23 03:46:15;;;;;;;6.15;5.22;;;17.00;96.70;;;;;;4932338;28;20153;-70
2023/05/23 03:48:43;;;;;;;8.25;5.15;;;17.00;96.70;;;;;;4947062;28;20117;-70
2023/05/23 03:51:12;;;;;;;6.90;5.13;;;16.90;96.70;;;;;;4964237;28;20081;-70
2023/05/23 03:53:41;;;;;;;6.30;5.22;;;16.90;96.70;;;;;;4932735;28;20413;-70
2023/05/23 03:56:10;;;;;;;5.95;5.28;;;16.90;96.70;;;;;;4963489;28;20494;-71
2023/05/23 03:58:40;;;;;;;7.07;5.65;;;16.90;96.70;;;;;;4965241;28;20042;-70
2023/05/23 04:01:13;;;;;;;7.22;5.35;;;16.90;96.70;;;;;;4958542;28;20445;-69
2023/05/23 04:03:41;;;;;;;8.63;5.50;;;16.90;96.70;;;;;;4947966;28;20043;-70
2023/05/23 04:06:10;;;;;;;7.75;5.28;;;16.80;96.70;;;;;;4928910;28;20047;-70
2023/05/23 04:08:44;;;;;;;6.05;5.07;;;16.80;96.70;;;;;;4929492;28;20043;-70
2023/05/23 04:11:13;;;;;;;7.32;5.72;;;16.90;96.70;;;;;;4963942;28;20576;-70
2023/05/23 04:13:45;;;;;;;6.82;5.90;;;16.80;96.70;;;;;;4949075;28;20047;-70
2023/05/23 04:16:14;;;;;;;7.63;5.82;;;16.60;96.70;;;;;;4948450;28;20520;-70
2023/05/23 04:18:45;;;;;;;7.47;5.93;;;16.70;96.70;;;;;;4945384;28;20149;-70
2023/05/23 04:21:14;;;;;;;7.85;5.72;;;16.80;96.70;;;;;;4946769;28;20500;-71
2023/05/23 04:23:52;;;;;;;9.48;6.50;;;16.90;96.70;;;;;;4943145;28;20054;-70
2023/05/23 04:26:21;;;;;;;8.20;6.88;;;16.80;96.70;;;;;;4950764;28;20046;-70
2023/05/23 04:28:53;;;;;;;9.65;6.43;;;16.80;96.70;;;;;;4940759;28;20134;-69
2023/05/23 04:31:23;;;;;;;11.00;7.45;;;16.80;96.70;;;;;;4948401;28;20062;-70
2023/05/23 04:33:51;;;;;;;10.02;7.05;;;16.80;96.70;;;;;;4947232;28;20043;-71
2023/05/23 04:36:22;;;;;;;8.57;6.82;;;16.80;96.70;;;;;;4946427;28;20050;-70
2023/05/23 04:38:54;;;;;;;7.20;6.35;;;16.90;96.70;;;;;;4945999;28;20170;-70
2023/05/23 04:41:23;;;;;;;7.25;5.78;;;16.90;96.70;;;;;;4945388;28;20054;-70
2023/05/23 04:44:08;;;;;;;7.90;5.85;;;16.90;96.70;;;;;;4949119;28;20039;-70
2023/05/23 04:46:41;;;;;;;;;;;16.90;96.70;;;;;;4963734;28;20057;-70
2023/05/23 04:49:23;;;;;;;6.72;5.38;;;16.90;96.70;;;;;;4945681;28;19926;-69
2023/05/23 04:51:52;;;;;;;5.75;5.25;;;17.10;96.70;;;;;;4947547;28;20129;-69
2023/05/23 04:54:31;;;;;;;7.22;4.78;;;17.10;96.70;;;;;;4932923;28;20047;-69
2023/05/23 04:57:05;;;;;;;7.38;5.50;;;17.10;96.70;;;;;;4937038;28;20133;-69
2023/05/23 04:59:35;;;;;;;6.80;4.45;;;17.10;96.70;;;;;;4959618;28;20070;-69
2023/05/23 05:02:05;;;;;;;5.63;4.88;;;17.00;96.70;;;;;;4945807;28;20049;-69
2023/05/23 05:04:35;;;;;;;7.15;5.30;;;17.10;96.70;;;;;;4957841;28;20062;-68
2023/05/23 05:07:04;;;;;;;6.45;5.18;;;17.10;96.70;;;;;;4966147;28;20100;-69
2023/05/23 05:09:33;;;;;;;7.80;5.78;;;17.10;96.70;;;;;;4945146;28;20035;-69
2023/05/23 05:12:02;;;;;;;8.45;6.18;;;17.00;96.70;;;;;;4928407;28;20065;-69
2023/05/23 05:14:30;;;;;;;7.53;6.18;;;16.90;96.70;;;;;;4961858;28;20043;-69
2023/05/23 05:17:01;;;;;;;8.55;5.45;;;17.00;96.70;;;;;;4947107;28;20449;-69
2023/05/23 05:19:37;;;;;;;8.35;5.28;;;17.10;96.70;;;;;;4943080;28;20051;-69
2023/05/23 05:22:06;;;;;;;9.25;5.72;;;17.20;96.70;;;;;;4963415;28;20049;-69
2023/05/23 05:24:35;;;;;;;5.82;4.90;;;17.20;96.70;;;;;;4944851;28;20540;-69
2023/05/23 05:27:05;;;;;;;8.82;5.43;;;17.10;96.70;;;;;;4930548;28;20137;-69
2023/05/23 05:29:35;;;;;;;7.68;5.10;;;17.00;96.70;;;;;;4947071;28;20047;-69
2023/05/23 05:32:07;;;;;;;7.25;5.25;;;17.10;96.70;;;;;;4963612;28;21441;-69
2023/05/23 05:34:36;;;;;;;9.88;5.47;;;17.10;96.70;;;;;;4960256;28;20050;-69
2023/05/23 05:37:06;;;;;;;8.65;5.60;;;17.20;96.70;;;;;;4954441;28;20131;-69
2023/05/23 05:39:34;;;;;;;6.00;4.90;;;17.20;96.70;;;;;;4964547;28;20477;-69
2023/05/23 05:42:04;;;;;;;8.48;4.85;;;17.30;96.70;;;;;;4952350;28;20053;-69
2023/05/23 05:44:33;;;;;;;6.85;5.80;;;17.40;96.70;;;;;;4945329;28;20130;-69
2023/05/23 05:47:01;;;;;;;5.38;4.90;;;17.50;96.70;;;;;;4948854;28;20626;-69
2023/05/23 05:49:32;;;;;;;10.32;5.03;;;17.50;96.70;;;;;;4947978;28;20068;-69
2023/05/23 05:52:02;;;;;;;6.70;4.88;;;17.50;96.70;;;;;;4964057;28;20142;-69
2023/05/23 05:54:30;;;;;;;6.10;4.78;;;17.60;96.70;;;;;;4944794;28;20757;-69
2023/05/23 05:56:59;;;;;;;7.28;4.95;;;17.60;96.70;;;;;;4940404;28;20095;-69
2023/05/23 05:59:27;;;;;;;7.13;4.93;;;17.60;96.70;;;;;;4965658;28;20082;-69
2023/05/23 06:01:59;;;;;;;5.97;5.30;;;17.60;96.70;;;;;;4964273;28;20046;-69
2023/05/23 06:04:27;;;;;;;6.38;5.18;;;17.60;96.70;;;;;;4957686;28;20513;-69
2023/05/23 06:06:59;;;;;;;5.70;5.18;;;17.60;96.70;;;;;;4965852;28;20445;-70
2023/05/23 06:09:29;;;;;;;10.20;5.88;;;17.60;96.70;;;;;;4932460;28;20039;-69
2023/05/23 06:11:57;;;;;;;6.68;5.07;;;17.60;96.70;;;;;;4947211;28;20770;-69
2023/05/23 06:14:26;;;;;;;6.15;4.80;;;17.70;96.70;;;;;;4948467;28;20149;-69
2023/05/23 06:16:56;;;;;;;6.40;5.30;;;17.80;96.70;;;;;;4944718;28;20057;-69
2023/05/23 06:19:24;;;;;;;7.13;5.00;;;17.90;96.70;;;;;;4949508;28;20046;-69
2023/05/23 06:21:54;;;;;;;6.97;5.10;;;17.90;96.70;;;;;;4944174;28;20721;-68
2023/05/23 06:24:25;;;;;;;6.28;5.10;;;18.00;96.70;;;;;;4945900;28;20050;-69
2023/05/23 06:26:53;;;;;;;5.72;5.13;;;18.00;96.70;;;;;;4928746;28;20054;-69
2023/05/23 06:29:22;;;;;;;8.88;5.82;;;18.10;96.70;;;;;;4960404;28;20567;-69
2023/05/23 06:31:50;;;;;;;6.55;5.28;;;18.20;96.70;;;;;;4963903;28;20113;-69
2023/05/23 06:34:19;;;;;;;6.43;5.28;;;18.20;96.70;;;;;;4943581;28;20563;-69
2023/05/23 06:36:48;;;;;;;7.70;5.32;;;18.20;96.70;;;;;;4945298;28;20141;-69
2023/05/23 06:39:16;;;;;;;8.00;5.93;;;18.20;96.70;;;;;;4953631;28;20606;-69
2023/05/23 06:41:46;;;;;;;7.65;5.60;;;18.20;96.70;;;;;;4959658;28;20047;-69
2023/05/23 06:44:15;;;;;;;6.20;5.30;;;18.30;96.70;;;;;;4963010;28;20043;-69
2023/05/23 06:46:45;;;;;;;5.88;5.28;;;18.40;96.70;;;;;;4969415;28;20058;-69
2023/05/23 06:49:14;;;;;;;7.38;6.47;;;18.40;96.70;;;;;;4965646;28;20659;-69
2023/05/23 06:51:44;;;;;;;6.57;5.38;;;18.50;96.70;;;;;;4973433;28;20066;-69
2023/05/23 06:54:14;;;;;;;6.75;5.38;;;18.60;96.70;;;;;;4959550;28;20146;-69
2023/05/23 06:56:45;;;;;;;7.68;5.70;;;18.60;96.70;;;;;;4956686;28;20140;-70
2023/05/23 06:59:15;;;;;;;7.80;5.35;;;18.60;96.70;;;;;;4949847;28;20620;-71
2023/05/23 07:01:43;;;;;;;6.05;4.95;;;18.70;96.70;;;;;;4969024;28;20461;-68
2023/05/23 07:04:14;;;;;;;6.03;5.30;;;18.70;96.70;;;;;;4952025;28;20077;-69
2023/05/23 07:06:43;;;;;;;7.40;5.38;;;18.80;96.70;;;;;;4966094;28;20070;-70
2023/05/23 07:09:12;;;;;;;6.05;5.28;;;18.80;96.70;;;;;;4967761;28;20054;-69
2023/05/23 07:11:41;;;;;;;7.38;4.95;;;18.90;96.70;;;;;;4971718;28;20054;-69
2023/05/23 07:14:12;;;;;;;5.60;4.80;;;19.00;96.70;;;;;;4932068;28;20099;-70
2023/05/23 07:16:42;;;;;;;6.80;4.70;;;19.00;96.70;;;;;;4950194;28;20054;-70
2023/05/23 07:19:11;;;;;;;5.40;4.63;;;19.00;96.70;;;;;;4965419;28;20560;-70
2023/05/23 07:21:45;;;;;;;5.97;4.70;;;19.10;96.70;;;;;;4977659;28;20500;-70
2023/05/23 07:24:16;;;;;;;5.57;5.03;;;19.10;96.70;;;;;;4972790;28;20049;-69
2023/05/23 07:26:45;;;;;;;5.25;4.75;;;19.20;96.70;;;;;;4950161;28;20490;-69
2023/05/23 07:29:15;;;;;;;8.32;5.70;;;19.30;96.70;;;;;;4964237;28;20400;-70
2023/05/23 07:31:46;;;;;;;6.80;5.18;;;19.50;96.70;;;;;;4943297;28;20770;-75
2023/05/23 07:34:15;;;;;;;5.88;5.32;;;19.50;96.70;;;;;;4953601;28;20054;-71
2023/05/23 07:36:55;;;;;;;5.75;5.10;;;19.60;96.70;;;;;;4943663;28;20047;-70
2023/05/23 07:39:26;;;;;;;6.25;5.47;;;19.70;96.70;;;;;;4974774;28;20057;-70
2023/05/23 07:41:57;;;;;;;6.07;5.53;;;19.80;96.70;;;;;;4965356;28;20085;-71
2023/05/23 07:44:28;;;;;;;6.55;5.65;;;19.90;96.70;;;;;;4956704;28;20729;-70
2023/05/23 07:46:57;;;;;;;5.85;5.28;;;19.90;96.70;;;;;;4961914;28;20055;-71
2023/05/23 07:49:26;;;;;;;6.32;5.72;;;19.90;96.70;;;;;;4941764;28;20071;-70
2023/05/23 07:51:55;;;;;;;7.25;5.55;;;19.90;96.70;;;;;;4966668;28;20508;-71
2023/05/23 07:54:24;;;;;;;7.35;5.93;;;19.90;96.70;;;;;;4953243;28;20532;-71
2023/05/23 07:56:57;;;;;;;6.85;6.25;;;20.00;96.70;;;;;;4955380;28;20062;-71
2023/05/23 07:59:29;;;;;;;6.35;5.75;;;20.10;96.70;;;;;;4970164;28;20051;-70
2023/05/23 08:01:58;;;;;;;6.55;5.95;;;20.20;96.70;;;;;;4975061;28;20061;-70
2023/05/23 08:04:28;;;;;;;10.60;6.07;;;20.30;96.70;;;;;;4960948;28;20130;-70
2023/05/23 08:06:57;;;;;;;6.60;5.93;;;20.50;96.70;;;;;;4945666;28;20051;-70
2023/05/23 08:09:36;;;;;;;6.75;5.75;;;20.50;96.70;;;;;;4942441;28;20047;-71
2023/05/23 08:12:05;;;;;;;6.35;5.70;;;20.60;96.70;;;;;;4932834;28;20057;-71
2023/05/23 08:14:35;;;;;;;8.13;5.82;;;20.60;96.70;;;;;;4946365;28;20058;-72
2023/05/23 08:17:28;;;;;;;6.57;5.93;;;20.70;96.70;;;;;;4958364;28;20048;-71
2023/05/23 08:19:59;;;;;;;6.85;6.15;;;20.90;96.70;;;;;;4945452;28;20078;-71
2023/05/23 08:22:28;;;;;;;6.93;6.03;;;20.90;96.70;;;;;;4944978;28;20055;-72
2023/05/23 08:24:57;;;;;;;8.63;5.75;;;20.90;96.70;;;;;;4960017;28;20043;-72
2023/05/23 08:27:29;;;;;;;7.72;6.30;;;21.00;96.70;;;;;;4944079;28;20050;-72
2023/05/23 08:30:05;;;;;;;7.90;6.28;;;21.00;96.70;;;;;;4966575;28;20091;-70
2023/05/23 08:32:34;;;;;;;7.43;5.95;;;21.00;96.70;;;;;;4945324;28;20055;-70
2023/05/23 08:35:03;;;;;;;7.45;6.70;;;21.10;96.70;;;;;;4974554;28;20046;-71
2023/05/23 08:37:31;;;;;;;7.22;6.25;;;21.20;96.70;;;;;;4949471;28;20086;-70
2023/05/23 08:40:00;;;;;;;8.57;6.65;;;21.30;96.70;;;;;;4956782;28;20043;-70
2023/05/23 08:42:39;;;;;;;7.35;6.57;;;21.30;96.70;;;;;;4955151;28;20051;-70
2023/05/23 08:45:11;;;;;;;8.73;6.25;;;21.40;96.70;;;;;;4951457;28;20054;-70
2023/05/23 08:47:43;;;;;;;7.18;5.72;;;21.50;96.70;;;;;;4948844;28;20102;-70
2023/05/23 08:50:13;;;;;;;7.03;6.32;;;21.50;96.70;;;;;;4948752;28;20735;-70
2023/05/23 08:52:49;;;;;;;7.43;6.25;;;21.50;96.70;;;;;;4941716;28;20047;-70
2023/05/23 08:55:18;;;;;;;8.00;6.40;;;21.50;96.70;;;;;;4963486;28;20051;-70
2023/05/23 08:57:47;;;;;;;7.00;6.05;;;21.60;96.70;;;;;;4963852;28;20051;-70
2023/05/23 09:00:29;;;;;;;7.80;6.32;;;21.80;96.70;;;;;;4945798;28;20053;-70
2023/05/23 09:02:57;;;;;;;7.75;6.60;;;22.00;96.70;;;;;;4957275;28;20051;-70
2023/05/23 09:05:50;;;;;;;8.80;6.90;;;22.00;96.70;;;;;;4981100;28;20153;-70
2023/05/23 09:08:20;;;;;;;7.18;6.45;;;22.00;96.70;;;;;;4957856;28;20453;-70
2023/05/23 09:10:50;;;;;;;8.07;6.93;;;22.00;96.70;;;;;;4950144;28;20083;-70
2023/05/23 09:13:20;;;;;;;8.70;7.15;;;22.20;96.70;;;;;;4948625;28;20189;-70
2023/05/23 09:16:01;;;;;;;7.47;6.68;;;22.20;96.70;;;;;;4954728;28;20436;-71
2023/05/23 09:18:35;;;;;;;7.20;6.50;;;22.20;96.70;;;;;;4954637;28;20949;-71
2023/05/23 09:21:07;;;;;;;8.98;6.80;;;22.20;96.70;;;;;;4957353;28;20043;-72
2023/05/23 09:23:39;;;;;;;7.78;6.90;;;22.30;96.70;;;;;;4951139;28;20145;-72
2023/05/23 09:26:10;;;;;;;9.57;6.70;;;22.30;96.70;;;;;;4935306;28;20074;-72
2023/05/23 09:28:39;;;;;;;9.00;6.60;;;22.50;96.70;;;;;;4949317;28;20555;-71
2023/05/23 09:31:11;;;;;;;9.63;6.80;;;22.70;96.70;;;;;;4964569;28;20041;-71
2023/05/23 09:33:42;;;;;;;8.50;7.63;;;22.80;96.70;;;;;;4957598;28;20051;-70
2023/05/23 09:36:11;;;;;;;8.40;6.45;;;22.80;96.70;;;;;;4940393;28;20080;-70
2023/05/23 09:38:40;;;;;;;11.65;7.25;;;22.90;96.70;;;;;;4978501;28;20048;-70
2023/05/23 09:41:12;;;;;;;8.93;7.00;;;23.00;96.70;;;;;;4957043;28;20054;-70
2023/05/23 09:43:49;;;;;;;9.10;7.47;;;23.00;96.70;;;;;;4955080;28;20058;-70
2023/05/23 09:46:20;;;;;;;10.40;6.95;;;23.10;96.70;;;;;;4940799;28;20097;-70
2023/05/23 09:48:50;;;;;;;10.32;7.75;;;23.20;96.70;;;;;;4965004;28;20059;-70
2023/05/23 09:51:20;;;;;;;9.80;7.85;;;23.50;96.70;;;;;;4932215;29;20553;-72
2023/05/23 09:53:51;;;;;;;8.25;7.40;;;23.70;96.70;;;;;;4960149;28;20517;-70
2023/05/23 09:56:22;;;;;;;13.43;6.85;;;23.40;96.70;;;;;;4952970;28;20050;-71
2023/05/23 09:58:51;;;;;;;11.32;6.93;;;23.50;96.70;;;;;;4962531;28;20047;-69
2023/05/23 10:01:24;;;;;;;10.95;7.60;;;23.70;96.70;;;;;;4952910;28;20444;-70
2023/05/23 10:03:57;;;;;;;7.68;6.25;;;23.70;96.70;;;;;;4957428;28;20042;-70
2023/05/23 10:06:32;;;;;;;9.40;6.80;;;23.80;96.70;;;;;;4954469;28;20046;-70
2023/05/23 10:09:03;;;;;;;7.53;6.32;;;24.10;96.70;;;;;;4962144;28;20113;-70
2023/05/23 10:12:06;;;;;;;12.35;6.70;;;24.10;96.70;;;;;;4958657;28;20046;-70
2023/05/23 10:14:40;;;;;;;10.60;6.80;;;24.00;96.70;;;;;;4938068;28;20059;-71
2023/05/23 10:17:17;;;;;;;8.43;5.80;;;24.00;96.70;;;;;;4960440;28;20051;-70
2023/05/23 10:19:52;;;;;;;10.98;6.03;;;24.30;96.70;;;;;;4952539;28;20042;-70
2023/05/23 10:22:21;;;;;;;7.82;5.80;;;24.40;96.70;;;;;;4943424;28;20058;-71
2023/05/23 10:24:50;;;;;;;8.85;5.78;;;24.30;96.70;;;;;;4954763;28;20039;-70
2023/05/23 10:27:18;;;;;;;6.47;4.75;;;24.60;96.70;;;;;;4950165;28;20816;-71
2023/05/23 10:29:47;;;;;;;7.20;5.15;;;24.60;96.70;;;;;;4953244;28;20715;-70
2023/05/23 10:32:18;;;;;;;10.55;5.80;;;24.90;96.70;;;;;;4955243;28;20043;-70
2023/05/23 10:34:56;;;;;;;9.45;5.35;;;25.00;96.70;;;;;;4961401;28;20054;-70
2023/05/23 10:37:32;;;;;;;8.65;5.57;;;25.00;96.70;;;;;;4950916;28;20105;-70
2023/05/23 10:40:06;;;;;;;9.27;5.80;;;25.20;96.70;;;;;;4951314;28;20058;-70
2023/05/23 10:42:43;;;;;;;7.80;4.90;;;25.50;96.70;;;;;;4944382;28;20061;-71
2023/05/23 10:45:18;;;;;;;7.35;4.93;;;25.50;96.70;;;;;;4955886;28;20589;-71
2023/05/23 10:47:49;;;;;;;5.47;4.55;;;25.50;96.70;;;;;;4968368;28;20063;-70
2023/05/23 10:50:33;;;;;;;7.43;5.25;;;25.90;96.70;;;;;;4965423;28;20757;-70
2023/05/23 10:53:03;;;;;;;5.30;4.15;;;26.00;96.70;;;;;;4956799;28;20105;-71
2023/05/23 10:55:32;;;;;;;6.88;4.70;;;26.10;96.70;;;;;;4963993;28;20508;-70
2023/05/23 10:58:11;;;;;;;7.35;4.30;;;26.30;96.70;;;;;;4977311;28;20129;-70
2023/05/23 11:00:52;;;;;;;5.15;3.92;;;26.60;96.70;;;;;;4973372;28;20055;-70
2023/05/23 11:03:35;;;;;;;5.25;4.22;;;26.80;96.70;;;;;;4966108;28;20078;-70
2023/05/23 11:06:04;;;;;;;5.65;4.38;;;27.00;96.70;;;;;;4957946;28;20057;-71
2023/05/23 11:08:41;;;;;;;7.15;4.75;;;27.10;96.70;;;;;;4980252;28;20048;-71
2023/05/23 11:11:15;;;;;;;7.13;4.10;;;27.20;96.70;;;;;;4980719;28;20047;-70
2023/05/23 11:13:59;;;;;;;6.47;4.10;;;27.30;96.70;;;;;;4969874;28;20051;-71
2023/05/23 11:16:29;;;;;;;4.82;3.80;;;27.40;96.70;;;;;;4960431;28;20054;-70
2023/05/23 11:19:24;;;;;;;6.78;3.80;;;27.40;96.70;;;;;;4970062;28;20121;-71
2023/05/23 11:21:55;;;;;;;5.13;3.60;;;27.40;96.70;;;;;;4976396;28;20054;-70
2023/05/23 11:24:43;;;;;;;6.15;3.08;;;27.30;96.70;;;;;;4936661;28;20058;-70
2023/05/23 11:27:12;;;;;;;4.38;3.47;;;27.40;96.70;;;;;;4966781;28;20565;-71
2023/05/23 11:29:40;;;;;;;6.88;3.45;;;27.50;96.70;;;;;;4976233;28;20042;-71
2023/05/23 11:32:12;;;;;;;4.88;3.08;;;27.60;96.70;;;;;;4968293;28;20081;-71
2023/05/23 11:34:46;;;;;;;4.60;3.30;;;28.00;96.70;;;;;;4975332;28;20078;-71
2023/05/23 11:37:16;;;;;;;4.03;2.90;;;28.20;96.70;;;;;;4969073;28;20116;-71
2023/05/23 11:39:44;;;;;;;5.18;3.20;;;28.40;96.70;;;;;;4980249;28;20473;-71
2023/05/23 11:42:12;;;;;;;6.78;3.25;;;28.30;96.70;;;;;;4980442;28;20118;-71
2023/05/23 11:44:40;;;;;;;3.33;2.90;;;28.30;96.70;;;;;;4981527;28;20081;-71
2023/05/23 11:47:08;;;;;;;5.20;3.22;;;28.40;96.70;;;;;;4958510;28;20050;-71
2023/05/23 11:49:39;;;;;;;5.20;3.33;;;28.50;96.70;;;;;;4967274;28;20101;-71
2023/05/23 11:52:09;;;;;;;5.70;3.33;;;28.60;96.70;;;;;;4942515;28;20479;-71
2023/05/23 11:54:39;;;;;;;4.90;3.13;;;28.80;96.70;;;;;;4948998;28;20046;-71
2023/05/23 11:57:07;;;;;;;5.32;3.30;;;29.00;96.70;;;;;;4965066;28;20080;-71
2023/05/23 11:59:35;;;;;;;3.45;3.13;;;29.10;96.70;;;;;;4968367;28;20051;-71
2023/05/23 12:02:05;;;;;;;3.17;2.70;;;29.20;96.70;;;;;;4968128;28;20125;-71
2023/05/23 12:04:35;;;;;;;3.45;2.78;;;29.20;96.70;;;;;;4975144;28;20046;-71
2023/05/23 12:07:08;;;;;;;3.33;2.70;;;29.30;96.70;;;;;;4971791;28;20042;-71
2023/05/23 12:09:43;;;;;;;4.38;3.05;;;29.40;96.70;;;;;;4953118;28;20050;-70
2023/05/23 12:12:12;;;;;;;7.28;3.40;;;29.50;96.70;;;;;;4975313;28;20385;-70
2023/05/23 12:14:43;;;;;;;3.20;2.90;;;29.60;96.70;;;;;;4974815;28;20100;-70
2023/05/23 12:17:12;;;;;;;3.92;3.25;;;29.70;96.70;;;;;;4957608;28;20090;-71
2023/05/23 12:19:45;;;;;;;4.38;2.72;;;29.70;96.70;;;;;;4975805;28;20051;-71
2023/05/23 12:22:23;;;;;;;4.97;3.55;;;29.80;96.70;;;;;;4967495;28;20039;-70
2023/05/23 12:24:54;;;;;;;4.80;3.88;;;29.50;96.70;;;;;;4959789;28;20054;-71
2023/05/23 12:27:28;;;;;;;6.57;4.10;;;29.40;96.70;;;;;;4984221;28;20058;-71
2023/05/23 12:30:08;;;;;;;6.25;4.00;;;29.40;96.70;;;;;;4974447;28;20042;-71
2023/05/23 12:32:39;;;;;;;6.55;4.05;;;29.30;96.70;;;;;;4974478;28;20489;-70
2023/05/23 12:35:11;;;;;;;6.28;3.95;;;29.30;96.70;;;;;;4934643;28;20401;-70
2023/05/23 12:37:44;;;;;;;4.18;3.58;;;29.00;96.70;;;;;;4976223;28;20538;-70
2023/05/23 12:40:14;;;;;;;6.13;4.03;;;29.00;96.70;;;;;;4979510;28;20465;-70
2023/05/23 12:42:53;;;;;;;5.05;3.72;;;29.10;96.70;;;;;;4976128;28;20054;-70
2023/05/23 12:45:23;;;;;;;4.80;3.75;;;29.20;96.70;;;;;;4976710;28;20273;-70
2023/05/23 12:47:52;;;;;;;5.78;3.95;;;29.10;96.70;;;;;;4983904;28;20050;-70
2023/05/23 12:50:21;;;;;;;5.25;4.05;;;29.10;96.70;;;;;;4966547;28;20069;-70
2023/05/23 12:52:51;;;;;;;6.53;4.40;;;29.10;96.70;;;;;;4975795;28;20043;-70
2023/05/23 12:55:20;;;;;;;6.50;4.00;;;29.20;96.70;;;;;;4956525;28;20137;-69
2023/05/23 12:57:53;;;;;;;5.25;3.50;;;29.20;96.70;;;;;;4982219;28;20074;-70
2023/05/23 13:00:25;;;;;;;4.50;4.10;;;29.20;96.70;;;;;;4952456;28;20050;-70
2023/05/23 13:02:53;;;;;;;5.43;4.70;;;29.30;96.70;;;;;;4973942;28;20062;-70
2023/05/23 13:05:21;;;;;;;6.53;4.60;;;29.30;96.70;;;;;;4956435;28;20379;-70